Time;durP1;ratioP1;P1;durP2;ratioP2;P2;SDS_P1;SDS_P2;PMS_P1;PMS_P2;Temp;Humidity;BMP_temperature;BMP_pressure;BME280_temperature;BME280_humidity;BME280_pressure;Samples;Min_cycle;Max_cycle;Signal;HPM_P1;HPM_P2
2022/12/22 03:27:42;;;;;;;0.20;0.20;;;11.20;1.00;;;;;;5071300;28;20078;-76
2022/12/22 03:30:08;;;;;;;0.30;0.30;;;11.10;14.50;;;;;;5071052;28;20021;-77
2022/12/22 03:32:33;;;;;;;0.20;0.20;;;11.00;1.00;;;;;;5075020;28;20023;-78
2022/12/22 03:34:59;;;;;;;0.20;0.20;;;11.00;1.70;;;;;;5074971;28;20024;-76
2022/12/22 03:37:25;;;;;;;0.73;0.73;;;11.00;1.00;;;;;;5074962;28;20017;-76
2022/12/22 03:39:50;;;;;;;0.30;0.30;;;10.90;2.30;;;;;;5074937;28;20078;-76
2022/12/22 03:47:44;;;;;;;0.30;0.30;;;11.00;50.20;;;;;;5075094;28;20461;-76
2022/12/22 03:50:10;;;;;;;0.20;0.20;;;11.00;62.30;;;;;;5074701;28;20108;-76
2022/12/22 03:52:35;;;;;;;0.20;0.20;;;11.10;73.30;;;;;;5074849;28;20471;-76
2022/12/22 03:55:01;;;;;;;0.28;0.28;;;11.10;77.70;;;;;;5074742;28;20503;-76
2022/12/22 03:57:27;;;;;;;0.20;0.20;;;11.10;71.80;;;;;;5074579;28;20069;-76
2022/12/22 03:59:52;;;;;;;0.40;0.40;;;11.10;65.60;;;;;;5074316;28;20054;-76
2022/12/22 04:02:18;;;;;;;0.20;0.20;;;11.00;47.20;;;;;;5074984;28;20025;-77
2022/12/22 04:04:44;;;;;;;0.20;0.20;;;10.80;16.70;;;;;;5074493;28;20028;-76
2022/12/22 04:07:09;;;;;;;0.32;0.32;;;10.70;10.20;;;;;;5074414;28;20154;-77
2022/12/22 04:09:35;;;;;;;0.20;0.20;;;10.70;6.90;;;;;;5074322;28;20082;-77
2022/12/22 04:14:45;;;;;;;0.30;0.30;;;10.40;3.70;;;;;;5074424;28;20032;-76
2022/12/22 04:17:10;;;;;;;0.30;0.30;;;10.40;2.80;;;;;;5074468;28;20021;-77
2022/12/22 04:19:36;;;;;;;0.20;0.20;;;10.30;1.00;;;;;;5074916;28;20032;-76
2022/12/22 04:22:02;;;;;;;0.20;0.20;;;10.30;12.70;;;;;;5075024;28;20535;-77
2022/12/22 04:24:27;;;;;;;0.20;0.20;;;10.40;20.60;;;;;;5075087;28;20404;-76
2022/12/22 04:26:53;;;;;;;0.40;0.40;;;10.40;29.60;;;;;;5074065;28;20028;-76
2022/12/22 04:29:18;;;;;;;0.20;0.20;;;10.50;35.20;;;;;;5074234;28;20481;-76
2022/12/22 04:31:44;;;;;;;0.20;0.20;;;10.50;39.80;;;;;;5075433;28;20013;-77
2022/12/22 04:34:10;;;;;;;0.43;0.43;;;10.60;51.90;;;;;;5076226;28;20031;-77
2022/12/22 04:36:36;;;;;;;0.30;0.30;;;10.50;18.80;;;;;;5075222;28;20035;-77
2022/12/22 04:39:01;;;;;;;0.20;0.20;;;10.40;1.00;;;;;;5073968;28;20056;-77
2022/12/22 04:41:27;;;;;;;0.30;0.30;;;10.30;1.00;;;;;;5073528;28;20025;-76
2022/12/22 04:43:52;;;;;;;0.20;0.20;;;10.20;1.00;;;;;;5075306;28;20056;-76
2022/12/22 04:46:18;;;;;;;0.30;0.30;;;10.20;1.00;;;;;;5080262;28;20028;-76
2022/12/22 04:48:44;;;;;;;0.30;0.30;;;10.00;28.90;;;;;;5076617;28;20029;-76
2022/12/22 04:51:09;;;;;;;0.30;0.30;;;9.90;36.10;;;;;;5075742;28;20056;-77
2022/12/22 04:53:35;;;;;;;0.30;0.30;;;10.00;65.60;;;;;;5088354;28;20413;-76
2022/12/22 04:56:04;;;;;;;0.28;0.28;;;10.10;90.80;;;;;;5090896;28;20396;-75
2022/12/22 04:58:31;;;;;;;0.88;0.88;;;10.10;99.90;;;;;;5092965;28;20013;-76
2022/12/22 05:01:06;;;;;;;0.88;0.82;;;10.20;99.90;;;;;;5090756;28;20047;-76
2022/12/22 05:03:31;;;;;;;0.30;0.30;;;10.30;99.90;;;;;;5091116;28;20021;-76
2022/12/22 05:05:57;;;;;;;1.48;1.38;;;10.60;99.90;;;;;;5091904;28;20040;-78
2022/12/22 05:08:23;;;;;;;0.82;0.82;;;10.70;99.90;;;;;;5080774;28;20074;-77
2022/12/22 05:10:48;;;;;;;0.43;0.43;;;10.80;99.90;;;;;;5073207;28;20035;-77
2022/12/22 05:13:14;;;;;;;0.28;0.28;;;10.80;99.90;;;;;;5073213;28;20068;-76
2022/12/22 05:15:40;;;;;;;0.20;0.20;;;10.90;99.90;;;;;;5073253;28;20048;-76
2022/12/22 05:18:05;;;;;;;0.30;0.30;;;10.90;99.90;;;;;;5074412;28;20025;-76
2022/12/22 05:20:31;;;;;;;1.27;1.17;;;10.90;99.90;;;;;;5073401;28;20027;-76
2022/12/22 05:22:57;;;;;;;0.20;0.20;;;11.00;99.90;;;;;;5073135;28;20025;-75
2022/12/22 05:25:23;;;;;;;0.20;0.20;;;11.00;99.90;;;;;;5072741;28;20049;-76
2022/12/22 05:27:50;;;;;;;0.47;0.47;;;11.10;99.90;;;;;;5073058;28;20055;-77
2022/12/22 05:30:17;;;;;;;0.30;0.30;;;11.10;99.90;;;;;;5073129;28;20039;-75
2022/12/22 05:32:43;;;;;;;0.20;0.20;;;11.10;99.90;;;;;;5072842;28;20169;-78
2022/12/22 05:35:09;;;;;;;0.82;0.82;;;11.20;99.90;;;;;;5072775;28;20691;-77
2022/12/22 05:37:35;;;;;;;0.20;0.20;;;11.20;99.90;;;;;;5072792;28;20468;-76
2022/12/22 05:40:00;;;;;;;0.30;0.30;;;11.20;99.90;;;;;;5071585;28;20116;-75
2022/12/22 05:42:35;;;;;;;0.20;0.20;;;11.20;99.90;;;;;;5072944;28;20047;-75
2022/12/22 05:45:06;;;;;;;0.22;0.22;;;11.30;99.90;;;;;;5071249;28;20404;-75
2022/12/22 05:47:33;;;;;;;2.28;2.17;;;11.30;99.90;;;;;;5072885;28;20116;-75
2022/12/22 05:49:59;;;;;;;0.20;0.20;;;11.40;99.90;;;;;;5072950;28;20031;-75
2022/12/22 05:52:24;;;;;;;0.30;0.30;;;11.30;99.90;;;;;;5073082;28;20024;-75
2022/12/22 05:54:50;;;;;;;0.77;0.77;;;11.40;99.90;;;;;;5071838;28;20373;-75
2022/12/22 05:57:15;;;;;;;0.20;0.20;;;11.40;99.90;;;;;;5077414;28;20054;-75
2022/12/22 05:59:41;;;;;;;0.20;0.20;;;11.30;99.90;;;;;;5079342;28;20029;-75
2022/12/22 06:02:07;;;;;;;0.20;0.20;;;11.40;99.90;;;;;;5076764;28;20142;-75
2022/12/22 06:04:32;;;;;;;0.20;0.20;;;11.30;99.90;;;;;;5073819;28;20586;-75
2022/12/22 06:06:58;;;;;;;1.00;1.00;;;11.30;99.90;;;;;;5073346;28;20626;-76
2022/12/22 06:09:24;;;;;;;0.20;0.20;;;11.20;99.90;;;;;;5073405;28;20124;-76
2022/12/22 06:11:49;;;;;;;0.20;0.20;;;11.20;99.90;;;;;;5073356;28;20023;-75
2022/12/22 06:14:15;;;;;;;0.57;0.57;;;11.20;99.90;;;;;;5071679;28;20032;-75
2022/12/22 06:16:41;;;;;;;0.30;0.30;;;11.20;99.90;;;;;;5072248;28;20021;-75
2022/12/22 06:19:06;;;;;;;0.40;0.40;;;11.20;99.90;;;;;;5071880;28;20147;-73
2022/12/22 06:21:32;;;;;;;0.22;0.22;;;11.10;99.90;;;;;;5072033;28;20036;-74
2022/12/22 06:23:58;;;;;;;0.20;0.20;;;11.10;99.90;;;;;;5071879;28;20044;-76
2022/12/22 06:26:24;;;;;;;0.40;0.40;;;11.10;99.90;;;;;;5071958;28;20017;-76
2022/12/22 06:28:49;;;;;;;0.30;0.30;;;11.00;99.90;;;;;;5071737;28;20024;-77
2022/12/22 06:31:15;;;;;;;0.20;0.20;;;11.00;99.90;;;;;;5071940;28;20350;-77
2022/12/22 06:33:41;;;;;;;0.30;0.30;;;11.00;99.90;;;;;;5071702;28;20099;-78
2022/12/22 06:36:07;;;;;;;0.20;0.20;;;11.00;99.90;;;;;;5071735;28;20097;-77
2022/12/22 06:38:34;;;;;;;0.20;0.20;;;10.90;99.90;;;;;;5071495;28;20021;-75
2022/12/22 06:41:00;;;;;;;0.30;0.30;;;10.90;99.90;;;;;;5071845;28;20054;-76
2022/12/22 06:43:25;;;;;;;0.30;0.30;;;10.70;99.90;;;;;;5071881;28;20127;-76
2022/12/22 06:45:52;;;;;;;0.25;0.25;;;10.50;99.90;;;;;;5071843;28;20111;-76
2022/12/22 06:48:17;;;;;;;0.30;0.30;;;10.50;99.90;;;;;;5074567;28;20029;-74
2022/12/22 06:50:43;;;;;;;0.28;0.28;;;10.60;99.90;;;;;;5073555;28;20104;-75
2022/12/22 06:53:09;;;;;;;0.28;0.28;;;10.60;99.90;;;;;;5071915;28;20369;-74
2022/12/22 06:55:36;;;;;;;0.20;0.20;;;10.60;99.90;;;;;;5071780;28;20358;-77
2022/12/22 06:58:01;;;;;;;0.30;0.30;;;10.70;99.90;;;;;;5071527;28;20473;-75
2022/12/22 07:00:27;;;;;;;0.47;0.47;;;10.70;99.90;;;;;;5071297;28;20107;-75
2022/12/22 07:02:53;;;;;;;0.20;0.20;;;10.70;99.90;;;;;;5071995;28;20078;-76
2022/12/22 07:05:19;;;;;;;0.60;0.60;;;10.60;99.90;;;;;;5071623;28;20051;-76
2022/12/22 07:07:44;;;;;;;0.20;0.20;;;10.50;99.90;;;;;;5073330;28;20027;-76
2022/12/22 07:10:10;;;;;;;0.30;0.30;;;10.50;99.90;;;;;;5074351;28;20020;-75
2022/12/22 07:12:36;;;;;;;0.20;0.20;;;10.40;99.90;;;;;;5072177;28;20032;-76
2022/12/22 07:15:04;;;;;;;0.30;0.30;;;10.40;99.90;;;;;;5071767;28;20020;-75
2022/12/22 07:17:29;;;;;;;1.20;1.20;;;10.30;99.90;;;;;;5071259;28;20036;-75
2022/12/22 07:19:55;;;;;;;0.20;0.20;;;10.30;99.90;;;;;;5075687;28;20055;-75
2022/12/22 07:22:21;;;;;;;0.30;0.30;;;10.40;99.90;;;;;;5074578;28;20369;-74
2022/12/22 07:24:46;;;;;;;0.30;0.30;;;10.50;99.90;;;;;;5074014;28;20083;-74
2022/12/22 07:27:13;;;;;;;0.20;0.20;;;10.50;99.90;;;;;;5080577;28;20170;-77
2022/12/22 07:29:40;;;;;;;0.20;0.20;;;10.50;99.90;;;;;;5076197;28;20036;-76
2022/12/22 07:32:06;;;;;;;0.30;0.30;;;10.50;99.90;;;;;;5077775;28;20104;-78
2022/12/22 07:34:32;;;;;;;0.30;0.30;;;10.50;99.90;;;;;;5078190;28;20048;-74
2022/12/22 07:36:57;;;;;;;0.30;0.30;;;10.50;99.90;;;;;;5071288;28;20047;-71
2022/12/22 07:39:23;;;;;;;0.30;0.30;;;10.60;99.90;;;;;;5071172;28;20024;-67
2022/12/22 07:44:33;;;;;;;0.30;0.30;;;10.90;99.90;;;;;;5071176;28;20032;-70
2022/12/22 07:46:59;;;;;;;0.20;0.20;;;11.00;99.90;;;;;;5072922;28;20044;-67
2022/12/22 07:52:08;;;;;;;0.20;0.20;;;11.30;1.00;;;;;;5070911;28;20081;-69
2022/12/22 07:54:35;;;;;;;0.20;0.20;;;11.60;1.00;;;;;;5070622;28;20032;-69
2022/12/22 07:57:00;;;;;;;0.20;0.20;;;12.00;1.00;;;;;;5070530;28;20043;-69
2022/12/22 07:59:26;;;;;;;0.20;0.20;;;12.20;1.00;;;;;;5070340;28;20028;-69
2022/12/22 08:01:52;;;;;;;0.20;0.20;;;12.30;1.00;;;;;;5070684;28;20017;-68
2022/12/22 08:04:18;;;;;;;0.20;0.20;;;12.50;1.00;;;;;;5070257;28;20030;-69
2022/12/22 08:06:44;;;;;;;0.20;0.20;;;12.60;1.00;;;;;;5063424;28;20382;-68
2022/12/22 08:09:14;;;;;;;0.20;0.20;;;12.70;1.00;;;;;;5066984;28;20071;-68
2022/12/22 08:11:40;;;;;;;0.20;0.20;;;12.80;1.00;;;;;;5069724;28;20016;-69
2022/12/22 08:14:06;;;;;;;0.20;0.20;;;13.10;1.00;;;;;;5049952;28;20071;-69
2022/12/22 08:16:31;;;;;;;0.30;0.30;;;13.20;1.00;;;;;;5050243;28;20064;-69
2022/12/22 08:18:57;;;;;;;0.20;0.20;;;13.40;1.00;;;;;;5070642;28;20024;-69
2022/12/22 08:21:23;;;;;;;0.20;0.20;;;13.50;2.20;;;;;;5071905;28;21957;-69
2022/12/22 08:23:49;;;;;;;0.20;0.20;;;13.60;18.10;;;;;;5054746;28;20040;-68
2022/12/22 08:26:24;;;;;;;0.20;0.20;;;13.70;26.20;;;;;;5056617;28;20040;-70
2022/12/22 08:29:22;;;;;;;0.20;0.20;;;13.70;36.10;;;;;;5053731;28;20032;-70
2022/12/22 08:31:47;;;;;;;0.20;0.20;;;13.70;77.50;;;;;;5049595;28;20033;-69
2022/12/22 08:34:15;;;;;;;0.20;0.20;;;13.70;92.60;;;;;;5060629;28;20030;-69
2022/12/22 08:36:48;;;;;;;0.20;0.20;;;13.80;98.40;;;;;;5052708;28;20091;-68
2022/12/22 08:39:15;;;;;;;0.15;0.15;;;13.70;99.90;;;;;;5055582;28;20020;-68
2022/12/22 08:41:49;;;;;;;0.20;0.20;;;13.80;99.90;;;;;;5053345;28;20116;-69
2022/12/22 08:44:18;;;;;;;0.20;0.20;;;13.80;99.90;;;;;;5051420;28;20033;-67
2022/12/22 08:46:44;;;;;;;0.17;0.17;;;13.90;99.90;;;;;;5053906;28;20516;-69
2022/12/22 08:49:09;;;;;;;0.20;0.20;;;13.90;99.90;;;;;;5072076;28;20044;-69
2022/12/22 08:51:35;;;;;;;0.17;0.17;;;13.90;99.90;;;;;;5070845;28;20029;-66
2022/12/22 08:54:01;;;;;;;0.10;0.10;;;14.00;99.90;;;;;;5051078;28;20017;-69
2022/12/22 08:56:26;;;;;;;0.20;0.20;;;14.00;99.90;;;;;;5055763;28;20028;-68
2022/12/22 08:58:52;;;;;;;0.20;0.20;;;14.00;99.90;;;;;;5059018;28;20056;-69
2022/12/22 09:01:20;;;;;;;0.20;0.20;;;14.10;99.90;;;;;;5052287;28;20039;-68
2022/12/22 09:03:50;;;;;;;0.20;0.20;;;14.10;99.90;;;;;;5067596;28;20024;-67
2022/12/22 09:06:18;;;;;;;0.20;0.20;;;14.10;99.90;;;;;;5061582;28;20033;-68
2022/12/22 09:08:43;;;;;;;0.20;0.20;;;14.10;99.90;;;;;;5070089;28;20032;-69
2022/12/22 09:11:09;;;;;;;0.20;0.20;;;14.10;99.90;;;;;;5071730;28;20033;-69
2022/12/22 09:13:35;;;;;;;0.20;0.20;;;14.20;99.90;;;;;;5069724;28;20381;-69
2022/12/22 09:16:05;;;;;;;0.20;0.20;;;14.30;99.90;;;;;;5072691;28;20342;-70
2022/12/22 09:18:31;;;;;;;0.10;0.10;;;14.30;99.90;;;;;;5071498;28;20017;-70
2022/12/22 09:20:57;;;;;;;0.20;0.20;;;14.40;99.90;;;;;;5072971;28;20035;-69
2022/12/22 09:23:22;;;;;;;0.20;0.20;;;14.50;99.90;;;;;;5072744;28;20017;-68
2022/12/22 09:25:48;;;;;;;0.10;0.10;;;14.50;99.90;;;;;;5071090;28;20488;-68
2022/12/22 09:28:14;;;;;;;0.20;0.20;;;14.50;99.90;;;;;;5072803;28;20021;-69
2022/12/22 09:30:39;;;;;;;0.20;0.20;;;14.60;99.90;;;;;;5072745;28;20615;-70
2022/12/22 09:33:05;;;;;;;0.20;0.20;;;14.70;99.90;;;;;;5064474;28;20079;-71
2022/12/22 09:35:31;;;;;;;0.20;0.20;;;14.70;99.90;;;;;;5066883;28;20064;-77
2022/12/22 09:37:56;;;;;;;0.20;0.20;;;14.80;1.00;;;;;;5072452;28;20524;-74
2022/12/22 09:40:23;;;;;;;1.17;1.17;;;14.90;1.00;;;;;;5070429;28;20055;-71
2022/12/22 09:42:49;;;;;;;0.40;0.40;;;14.80;1.00;;;;;;5063412;28;20035;-72
2022/12/22 09:45:20;;;;;;;0.20;0.20;;;14.70;99.90;;;;;;5052359;28;20411;-72
2022/12/22 09:47:52;;;;;;;0.20;0.20;;;14.70;99.90;;;;;;5052466;28;20052;-72
2022/12/22 09:50:22;;;;;;;0.75;0.75;;;14.70;99.90;;;;;;5051360;28;20025;-72
2022/12/22 09:53:00;;;;;;;0.20;0.20;;;14.70;99.90;;;;;;5053844;28;20095;-71
2022/12/22 09:55:25;;;;;;;0.20;0.20;;;14.70;99.90;;;;;;5055368;28;20024;-71
2022/12/22 09:57:53;;;;;;;0.20;0.20;;;14.60;99.90;;;;;;5067973;28;20033;-70
2022/12/22 10:00:22;;;;;;;0.20;0.20;;;14.50;99.90;;;;;;5053169;28;20021;-71
2022/12/22 10:02:54;;;;;;;0.20;0.20;;;14.50;99.90;;;;;;5051225;28;20440;-71
2022/12/22 10:05:52;;;;;;;0.40;0.40;;;14.60;99.90;;;;;;5052355;28;20064;-70
2022/12/22 10:08:27;;;;;;;0.57;0.57;;;14.60;99.90;;;;;;5056701;28;20092;-70
2022/12/22 10:10:55;;;;;;;1.85;1.33;;;14.60;99.90;;;;;;5059871;28;20025;-70
2022/12/22 10:13:21;;;;;;;0.20;0.20;;;14.60;1.00;;;;;;5056959;28;20033;-70
2022/12/22 10:15:47;;;;;;;0.20;0.20;;;14.60;1.00;;;;;;5054954;28;20033;-71
2022/12/22 10:18:21;;;;;;;0.20;0.20;;;14.70;99.90;;;;;;5061761;28;20126;-70
2022/12/22 10:21:12;;;;;;;0.20;0.20;;;14.70;99.90;;;;;;5056095;28;20033;-69
2022/12/22 10:23:47;;;;;;;0.20;0.20;;;14.70;99.90;;;;;;5066325;28;20024;-69
2022/12/22 10:26:18;;;;;;;0.20;0.20;;;14.80;99.90;;;;;;5071555;28;20481;-67
2022/12/22 10:28:50;;;;;;;0.73;0.73;;;14.80;99.90;;;;;;5070840;28;20040;-69
2022/12/22 10:31:26;;;;;;;0.20;0.20;;;14.90;99.90;;;;;;5067743;28;20060;-68
2022/12/22 10:33:56;;;;;;;2.75;1.75;;;14.90;99.90;;;;;;5059066;28;20107;-67
2022/12/22 10:36:31;;;;;;;0.63;0.57;;;14.90;99.90;;;;;;5051004;28;20031;-68
2022/12/22 10:38:58;;;;;;;5.97;2.05;;;14.90;99.90;;;;;;5067331;28;20033;-68
2022/12/22 10:41:27;;;;;;;0.38;0.38;;;14.90;99.90;;;;;;5065179;28;20020;-67
2022/12/22 10:43:59;;;;;;;0.52;0.52;;;15.00;97.20;;;;;;5061077;28;20029;-68
2022/12/22 10:46:45;;;;;;;0.20;0.20;;;15.00;92.50;;;;;;5066857;28;20444;-66
2022/12/22 10:49:10;;;;;;;10.35;3.63;;;15.00;90.00;;;;;;5051192;28;20025;-66
2022/12/22 10:51:37;;;;;;;0.10;0.10;;;15.00;76.20;;;;;;5051583;28;20039;-68
2022/12/22 10:54:02;;;;;;;0.20;0.20;;;15.00;79.70;;;;;;5066055;28;20035;-66
2022/12/22 10:56:31;;;;;;;4.32;0.73;;;15.00;57.70;;;;;;5072384;28;20107;-67
2022/12/22 10:59:19;;;;;;;0.20;0.20;;;15.00;44.90;;;;;;5063389;28;20025;-66
2022/12/22 11:01:45;;;;;;;0.20;0.20;;;15.00;6.60;;;;;;5053248;28;20359;-67
2022/12/22 11:04:29;;;;;;;2.75;1.95;;;15.00;1.00;;;;;;5056607;28;20381;-66
2022/12/22 11:06:58;;;;;;;0.20;0.20;;;15.00;1.00;;;;;;5059624;28;20033;-67
2022/12/22 11:09:25;;;;;;;14.35;3.60;;;15.00;1.00;;;;;;5064578;28;20435;-67
2022/12/22 11:12:04;;;;;;;0.55;0.55;;;15.00;1.00;;;;;;5070770;28;20070;-65
2022/12/22 11:14:40;;;;;;;0.40;0.40;;;15.00;1.00;;;;;;5058184;28;20036;-64
2022/12/22 11:17:19;;;;;;;25.40;0.68;;;15.00;1.00;;;;;;5055827;28;20424;-65
2022/12/22 11:19:56;;;;;;;2.78;2.38;;;15.10;99.90;;;;;;5067514;28;20043;-64
2022/12/22 11:22:40;;;;;;;0.47;0.47;;;15.00;99.90;;;;;;5071058;28;20506;-65
2022/12/22 11:25:05;;;;;;;0.63;0.63;;;15.00;99.90;;;;;;5076948;28;20071;-65
2022/12/22 11:27:39;;;;;;;0.30;0.30;;;14.90;99.90;;;;;;5068684;28;20469;-64
2022/12/22 11:30:19;;;;;;;0.52;0.52;;;14.90;99.90;;;;;;5050779;28;20055;-63
2022/12/22 11:33:23;;;;;;;0.20;0.20;;;14.90;99.90;;;;;;5050555;28;20014;-65
2022/12/22 11:35:54;;;;;;;1.05;1.05;;;15.00;99.90;;;;;;5050829;28;20397;-65
2022/12/22 11:38:20;;;;;;;0.20;0.20;;;15.00;99.90;;;;;;5050731;28;20083;-65
2022/12/22 11:40:53;;;;;;;0.28;0.28;;;14.90;99.90;;;;;;5050942;28;20025;-65
2022/12/22 11:44:04;;;;;;;1.38;1.38;;;14.90;1.00;;;;;;5060344;28;20054;-66
2022/12/22 11:46:40;;;;;;;0.20;0.20;;;14.90;1.00;;;;;;4971576;28;20042;-66
2022/12/22 11:49:22;;;;;;;0.45;0.45;;;14.80;1.00;;;;;;4988748;28;20256;-66
2022/12/22 11:52:14;;;;;;;0.22;0.22;;;14.90;1.00;;;;;;5032953;28;20037;-65
2022/12/22 11:54:44;;;;;;;0.20;0.20;;;14.90;99.90;;;;;;5056272;28;20033;-65
2022/12/22 11:57:28;;;;;;;0.28;0.28;;;14.90;99.90;;;;;;5062750;28;20366;-65
2022/12/22 12:00:08;;;;;;;0.32;0.32;;;14.90;99.90;;;;;;5071162;28;20071;-64
2022/12/22 12:02:54;;;;;;;12.35;2.67;;;14.90;99.90;;;;;;5068310;28;20021;-64
2022/12/22 12:05:57;;;;;;;0.30;0.30;;;14.90;99.90;;;;;;5058293;28;20037;-63
2022/12/22 12:08:29;;;;;;;2.58;2.47;;;14.80;99.90;;;;;;5071142;28;20065;-64
2022/12/22 12:11:42;;;;;;;4.00;3.72;;;14.80;99.90;;;;;;5074342;28;20362;-63
2022/12/22 12:14:08;;;;;;;0.63;0.63;;;14.80;99.90;;;;;;5044584;28;20041;-65
2022/12/22 12:16:52;;;;;;;0.47;0.47;;;14.80;99.90;;;;;;5065264;28;20032;-65
2022/12/22 12:19:33;;;;;;;0.55;0.55;;;14.80;99.90;;;;;;5059439;28;20059;-65
2022/12/22 12:22:03;;;;;;;0.20;0.20;;;14.80;99.90;;;;;;5069705;28;20070;-64
2022/12/22 12:25:14;;;;;;;0.20;0.20;;;14.80;99.90;;;;;;5072811;28;20621;-64
2022/12/22 12:28:17;;;;;;;0.30;0.30;;;14.70;99.90;;;;;;5030652;28;20120;-64
2022/12/22 12:30:51;;;;;;;0.20;0.20;;;14.70;99.90;;;;;;5059826;28;20097;-64
2022/12/22 12:33:25;;;;;;;0.30;0.30;;;14.70;99.90;;;;;;5073750;28;20035;-64
2022/12/22 12:36:25;;;;;;;0.75;0.75;;;14.80;99.90;;;;;;5072984;28;20028;-65
2022/12/22 12:38:56;;;;;;;0.20;0.20;;;14.80;99.90;;;;;;5065322;28;20444;-64
2022/12/22 12:41:44;;;;;;;0.20;0.20;;;14.80;99.90;;;;;;5071409;28;20029;-65
2022/12/22 12:44:15;;;;;;;1.27;1.17;;;14.80;99.90;;;;;;5069136;28;20077;-67
2022/12/22 12:46:51;;;;;;;0.50;0.50;;;14.80;99.90;;;;;;5073514;28;20039;-67
2022/12/22 12:49:35;;;;;;;4.85;2.40;;;14.80;99.90;;;;;;5073712;28;20064;-67
2022/12/22 12:52:10;;;;;;;2.45;2.25;;;14.80;99.90;;;;;;5058121;28;20032;-67
2022/12/22 12:54:48;;;;;;;0.20;0.20;;;14.80;99.90;;;;;;5063531;28;20126;-67
2022/12/22 12:57:46;;;;;;;0.28;0.28;;;14.70;99.90;;;;;;5063934;28;20505;-68
2022/12/22 13:00:42;;;;;;;5.53;0.32;;;14.70;99.90;;;;;;5073467;28;20036;-67
2022/12/22 13:03:33;;;;;;;5.47;2.85;;;14.70;99.90;;;;;;5056098;28;20066;-66
2022/12/22 13:06:01;;;;;;;12.13;2.47;;;14.60;99.90;;;;;;5056190;28;20032;-69
2022/12/22 13:08:30;;;;;;;0.20;0.20;;;14.60;99.90;;;;;;5063390;28;20131;-69
2022/12/22 13:10:55;;;;;;;0.25;0.25;;;14.60;99.90;;;;;;5067858;28;20016;-70
2022/12/22 13:13:24;;;;;;;2.30;1.10;;;14.50;99.90;;;;;;5063474;28;20045;-69
2022/12/22 13:16:09;;;;;;;0.20;0.20;;;14.50;99.90;;;;;;5071794;28;20021;-69
2022/12/22 13:18:42;;;;;;;0.30;0.30;;;14.60;99.90;;;;;;5048218;28;20033;-68
2022/12/22 13:21:26;;;;;;;0.30;0.30;;;14.50;99.90;;;;;;5065499;28;20020;-69
2022/12/22 13:23:54;;;;;;;0.20;0.20;;;14.60;99.90;;;;;;5072217;28;20051;-68
2022/12/22 13:26:24;;;;;;;0.25;0.25;;;14.60;99.90;;;;;;5066655;28;20044;-70
2022/12/22 13:29:08;;;;;;;0.35;0.35;;;14.60;99.90;;;;;;5072660;28;20031;-69
2022/12/22 13:31:43;;;;;;;0.20;0.20;;;14.70;99.90;;;;;;5060462;28;20029;-68
2022/12/22 13:34:30;;;;;;;10.88;1.48;;;14.70;99.90;;;;;;5072712;28;20028;-68
2022/12/22 13:37:01;;;;;;;13.15;4.13;;;14.70;99.90;;;;;;5072679;28;20524;-70
2022/12/22 13:39:27;;;;;;;0.32;0.32;;;14.70;99.90;;;;;;5072858;28;20085;-70
2022/12/22 13:41:54;;;;;;;0.20;0.20;;;14.70;99.90;;;;;;5072978;28;20374;-70
2022/12/22 13:44:28;;;;;;;0.30;0.30;;;14.60;99.90;;;;;;5072815;28;20025;-68
2022/12/22 13:46:55;;;;;;;0.20;0.20;;;14.70;99.90;;;;;;5067148;28;20103;-69
2022/12/22 13:49:23;;;;;;;0.20;0.20;;;14.60;99.90;;;;;;5069653;28;20154;-70
2022/12/22 13:51:50;;;;;;;1.50;1.40;;;14.60;99.90;;;;;;5072789;28;20027;-69
2022/12/22 13:54:31;;;;;;;0.25;0.25;;;14.60;99.90;;;;;;5073442;28;20124;-77
2022/12/22 13:56:59;;;;;;;0.30;0.30;;;14.40;99.90;;;;;;5074072;28;20042;-73
2022/12/22 13:59:41;;;;;;;0.82;0.82;;;14.40;40.30;;;;;;5073042;28;20385;-77
2022/12/22 14:02:06;;;;;;;;;;;14.30;99.90;;;;;;5060007;28;20606;-76
2022/12/22 14:04:32;;;;;;;0.20;0.20;;;14.30;32.50;;;;;;5078637;28;19920;-81
2022/12/22 14:07:17;;;;;;;2.15;2.05;;;14.40;99.90;;;;;;5074648;28;20561;-80
2022/12/22 14:09:53;;;;;;;0.28;0.28;;;14.50;99.90;;;;;;5085761;28;20017;-80
2022/12/22 14:12:34;;;;;;;0.28;0.28;;;14.50;99.90;;;;;;5078559;28;20029;-80
2022/12/22 14:15:01;;;;;;;0.30;0.30;;;14.60;19.70;;;;;;5074574;28;20460;-83
2022/12/22 14:17:34;;;;;;;0.20;0.20;;;14.60;99.90;;;;;;5073807;28;20447;-76
2022/12/22 14:20:21;;;;;;;2.90;2.67;;;14.70;99.90;;;;;;5052534;28;20033;-73
2022/12/22 14:23:02;;;;;;;0.20;0.20;;;14.70;99.90;;;;;;5053629;28;20120;-75
2022/12/22 14:25:38;;;;;;;1.10;1.00;;;14.80;99.90;;;;;;5073106;28;20047;-76
2022/12/22 14:28:07;;;;;;;27.95;1.40;;;14.90;99.90;;;;;;5075722;28;20016;-76
2022/12/22 14:30:43;;;;;;;0.68;0.68;;;14.90;1.00;;;;;;5080534;28;20028;-76
2022/12/22 14:33:14;;;;;;;0.80;0.80;;;14.90;68.10;;;;;;5078054;28;20021;-75
2022/12/22 14:35:40;;;;;;;1.35;1.33;;;14.90;99.90;;;;;;5074063;28;20087;-76
2022/12/22 14:38:23;;;;;;;0.82;0.50;;;14.90;99.90;;;;;;5070492;28;20524;-71
2022/12/22 14:40:50;;;;;;;1.33;1.25;;;14.90;99.90;;;;;;5062592;28;20029;-72
2022/12/22 14:43:16;;;;;;;1.95;1.85;;;14.90;99.90;;;;;;5070096;28;20405;-72
2022/12/22 14:45:47;;;;;;;0.50;0.50;;;14.90;99.90;;;;;;5068343;28;20037;-71
2022/12/22 14:48:23;;;;;;;2.05;1.10;;;14.90;99.90;;;;;;5070409;28;20042;-71
2022/12/22 14:50:50;;;;;;;0.85;0.82;;;14.90;99.90;;;;;;5071185;28;20507;-70
2022/12/22 14:53:24;;;;;;;4.40;1.90;;;14.90;1.00;;;;;;5071108;28;20093;-70
2022/12/22 14:55:50;;;;;;;12.02;0.95;;;14.90;6.80;;;;;;5069343;28;20025;-68
2022/12/22 14:58:25;;;;;;;0.20;0.20;;;14.90;67.90;;;;;;5066549;28;20093;-70
2022/12/22 15:01:28;;;;;;;12.85;1.65;;;14.90;99.90;;;;;;5063597;28;20044;-68
2022/12/22 15:04:18;;;;;;;0.38;0.38;;;14.90;99.90;;;;;;5069391;28;20361;-68
2022/12/22 15:06:46;;;;;;;0.20;0.20;;;14.80;99.90;;;;;;5069709;28;20115;-69
2022/12/22 15:09:12;;;;;;;5.07;1.00;;;14.90;99.90;;;;;;5068292;28;20024;-70
2022/12/22 15:11:51;;;;;;;0.20;0.20;;;14.90;99.90;;;;;;5070946;28;20016;-69
2022/12/22 15:14:24;;;;;;;0.20;0.20;;;14.90;99.90;;;;;;5059268;28;20108;-69
2022/12/22 15:16:54;;;;;;;1.05;1.05;;;14.80;99.90;;;;;;5070266;28;20036;-68
2022/12/22 15:19:23;;;;;;;2.38;1.30;;;14.90;99.90;;;;;;5067971;28;20548;-68
2022/12/22 15:21:51;;;;;;;0.85;0.85;;;14.80;96.80;;;;;;5067545;28;20024;-69
2022/12/22 15:24:17;;;;;;;0.20;0.20;;;14.80;79.50;;;;;;5070607;28;20084;-69
2022/12/22 15:26:44;;;;;;;0.43;0.43;;;14.80;39.20;;;;;;5070488;28;20033;-70
2022/12/22 15:29:11;;;;;;;0.20;0.20;;;14.70;8.10;;;;;;5050051;28;20052;-68
2022/12/22 15:31:38;;;;;;;0.20;0.20;;;14.60;1.00;;;;;;5068460;28;20043;-69
2022/12/22 15:34:12;;;;;;;6.78;2.78;;;14.60;1.00;;;;;;5070638;28;20040;-67
2022/12/22 15:36:38;;;;;;;0.20;0.20;;;14.60;1.00;;;;;;5069503;28;20028;-68
2022/12/22 15:39:03;;;;;;;0.20;0.20;;;14.50;99.90;;;;;;5070673;28;20093;-68
2022/12/22 15:41:29;;;;;;;0.20;0.20;;;14.50;99.90;;;;;;5059110;28;20029;-68
2022/12/22 15:43:55;;;;;;;0.20;0.20;;;14.50;99.90;;;;;;5070607;28;20021;-68
2022/12/22 15:46:21;;;;;;;0.57;0.57;;;14.50;99.90;;;;;;5067316;28;20041;-68
2022/12/22 15:48:47;;;;;;;0.40;0.40;;;14.50;99.90;;;;;;5061544;28;20028;-69
2022/12/22 15:51:22;;;;;;;0.20;0.20;;;14.50;99.90;;;;;;5070681;28;20037;-68
2022/12/22 15:53:48;;;;;;;0.30;0.30;;;14.50;99.90;;;;;;5070405;28;20020;-69
2022/12/22 15:56:19;;;;;;;0.30;0.30;;;14.40;99.90;;;;;;5070508;28;20025;-68
2022/12/22 15:58:45;;;;;;;0.20;0.20;;;14.40;58.90;;;;;;5069411;28;20032;-67
2022/12/22 16:01:11;;;;;;;0.20;0.20;;;14.40;1.00;;;;;;5070032;28;20097;-67
2022/12/22 16:03:37;;;;;;;0.20;0.20;;;14.40;99.90;;;;;;5067878;28;20465;-67
2022/12/22 16:06:05;;;;;;;0.20;0.20;;;14.40;99.90;;;;;;5070403;28;20111;-68
2022/12/22 16:08:36;;;;;;;0.20;0.20;;;14.40;1.00;;;;;;5070751;28;20032;-68
2022/12/22 16:11:03;;;;;;;0.20;0.20;;;14.30;99.90;;;;;;5070834;28;20063;-66
2022/12/22 16:13:29;;;;;;;1.95;1.85;;;14.30;1.00;;;;;;5070795;28;20025;-69
2022/12/22 16:15:56;;;;;;;0.30;0.30;;;14.30;99.90;;;;;;5071345;28;20031;-69
2022/12/22 16:18:22;;;;;;;0.35;0.35;;;14.30;99.90;;;;;;5070628;28;20040;-67
2022/12/22 16:20:51;;;;;;;0.20;0.20;;;14.40;99.90;;;;;;5064744;28;20366;-70
2022/12/22 16:23:21;;;;;;;0.20;0.20;;;14.30;99.90;;;;;;5067079;28;20032;-66
2022/12/22 16:25:47;;;;;;;0.43;0.43;;;14.30;46.70;;;;;;5072121;28;20077;-68
2022/12/22 16:28:16;;;;;;;0.20;0.20;;;14.30;1.00;;;;;;5072085;28;20077;-67
2022/12/22 16:30:42;;;;;;;0.20;0.20;;;14.30;1.00;;;;;;5072096;28;20111;-67
2022/12/22 16:33:11;;;;;;;0.20;0.20;;;14.30;1.00;;;;;;5070243;28;20108;-67
2022/12/22 16:35:37;;;;;;;0.20;0.20;;;14.30;99.90;;;;;;5068103;28;20028;-68
2022/12/22 16:38:03;;;;;;;0.30;0.30;;;14.30;94.70;;;;;;5066615;28;20374;-69
2022/12/22 16:40:31;;;;;;;26.50;1.95;;;14.30;1.00;;;;;;5056535;28;20066;-68
2022/12/22 16:43:03;;;;;;;0.20;0.20;;;14.20;99.90;;;;;;5057789;28;20408;-67
2022/12/22 16:45:30;;;;;;;;;;;14.20;99.90;;;;;;5060779;28;20078;-67